createdAt,value
2018-12-11T00:00:22.305Z,100222.06
2018-12-11T00:02:56.914Z,100214.37
2018-12-11T00:05:32.319Z,100218.27
2018-12-11T00:08:04.931Z,100221.31
2018-12-11T00:10:37.532Z,100211.32
2018-12-11T00:13:10.701Z,100216.80
2018-12-11T00:15:43.348Z,100219.73
2018-12-11T00:18:15.898Z,100220.82
2018-12-11T00:20:48.510Z,100221.94
2018-12-11T00:23:22.397Z,100212.58
2018-12-11T00:25:55.027Z,100215.22
2018-12-11T00:28:27.699Z,100210.08
2018-12-11T00:31:00.489Z,100204.34
2018-12-11T00:33:33.053Z,100204.84
2018-12-11T00:36:05.609Z,100202.87
2018-12-11T00:38:38.762Z,100212.75
2018-12-11T00:41:12.712Z,100210.55
2018-12-11T00:43:45.238Z,100204.20
2018-12-11T00:46:17.963Z,100201.50
2018-12-11T00:48:52.194Z,100201.82
2018-12-11T00:51:24.741Z,100197.67
2018-12-11T00:53:57.315Z,100193.61
2018-12-11T00:56:29.974Z,100205.45
2018-12-11T00:59:02.529Z,100207.13
2018-12-11T01:01:36.324Z,100207.47
2018-12-11T01:04:08.970Z,100206.75
2018-12-11T01:06:42.171Z,100210.31
2018-12-11T01:09:14.719Z,100215.77
2018-12-11T01:11:48.478Z,100207.98
2018-12-11T01:14:21.037Z,100209.22
2018-12-11T01:16:53.666Z,100209.80
2018-12-11T01:19:26.191Z,100199.67
2018-12-11T01:21:58.893Z,100208.55
2018-12-11T01:24:31.433Z,100219.73
2018-12-11T01:27:04.852Z,100219.02
2018-12-11T01:29:38.047Z,100223.10
2018-12-11T01:32:12.368Z,100222.04
2018-12-11T01:34:44.883Z,100229.37
2018-12-11T01:37:17.422Z,100227.93
2018-12-11T01:39:49.969Z,100227.05
2018-12-11T01:42:23.747Z,100230.48
2018-12-11T01:44:56.560Z,100209.36
2018-12-11T01:47:29.186Z,100222.30
2018-12-11T01:50:01.848Z,100235.67
2018-12-11T01:52:34.544Z,100233.57
2018-12-11T01:55:07.299Z,100229.19
2018-12-11T01:57:40.043Z,100226.36
2018-12-11T02:00:12.657Z,100227.78
2018-12-11T02:02:45.332Z,100232.21
2018-12-11T02:05:19.570Z,100235.08
2018-12-11T02:07:52.840Z,100232.03
2018-12-11T02:10:25.518Z,100227.27
2018-12-11T02:12:58.275Z,100228.54
2018-12-11T02:15:30.894Z,100226.92
2018-12-11T02:18:03.621Z,100228.42
2018-12-11T02:20:36.233Z,100228.35
2018-12-11T02:23:08.814Z,100242.02
2018-12-11T02:25:41.428Z,100237.14
2018-12-11T02:28:13.957Z,100239.91
2018-12-11T02:30:46.574Z,100234.55
2018-12-11T02:33:19.290Z,100235.28
2018-12-11T02:35:51.935Z,100239.72
2018-12-11T02:38:24.535Z,100249.97
2018-12-11T02:40:57.203Z,100241.14
2018-12-11T02:43:29.930Z,100244.55
2018-12-11T02:53:16.807Z,100254.14
2018-12-11T02:55:49.601Z,100246.05
2018-12-11T02:58:22.172Z,100254.59
2018-12-11T03:00:54.805Z,100253.75
2018-12-11T03:03:27.582Z,100255.59
2018-12-11T03:06:00.184Z,100248.46
2018-12-11T03:08:32.938Z,100253.52
2018-12-11T03:11:05.523Z,100235.16
2018-12-11T03:13:38.167Z,100237.11
2018-12-11T03:16:10.805Z,100232.21
2018-12-11T03:18:43.425Z,100231.49
2018-12-11T03:21:16.063Z,100229.19
2018-12-11T03:23:48.744Z,100241.91
2018-12-11T03:26:21.317Z,100235.55
2018-12-11T03:28:54.069Z,100239.03
2018-12-11T03:31:26.693Z,100234.01
2018-12-11T03:33:59.491Z,100235.50
2018-12-11T03:36:32.588Z,100235.24
2018-12-11T03:39:06.080Z,100236.45
2018-12-11T03:41:39.947Z,100241.45
2018-12-11T03:44:12.541Z,100237.92
2018-12-11T03:46:45.254Z,100237.08
2018-12-11T03:49:17.858Z,100242.09
2018-12-11T03:51:50.447Z,100249.66
2018-12-11T03:54:22.973Z,100246.91
2018-12-11T03:56:55.562Z,100251.64
2018-12-11T03:59:28.138Z,100250.45
2018-12-11T04:02:01.306Z,100242.36
2018-12-11T04:04:33.846Z,100244.55
2018-12-11T04:07:06.472Z,100242.75
2018-12-11T04:09:40.112Z,100239.56
2018-12-11T04:12:12.798Z,100244.70
2018-12-11T04:14:46.660Z,100244.55
2018-12-11T04:17:19.414Z,100235.89
2018-12-11T04:19:52.796Z,100242.80
2018-12-11T04:22:25.399Z,100247.13
2018-12-11T04:24:58.692Z,100245.28
2018-12-11T04:27:33.464Z,100245.59
2018-12-11T04:30:08.507Z,100236.50
2018-12-11T04:32:41.539Z,100240.45
2018-12-11T04:35:14.158Z,100241.49
2018-12-11T04:37:46.677Z,100244.09
2018-12-11T04:40:19.287Z,100245.33
2018-12-11T04:42:52.418Z,100251.88
2018-12-11T04:45:25.038Z,100247.28
2018-12-11T04:47:57.588Z,100245.85
2018-12-11T04:50:30.182Z,100249.45
2018-12-11T04:53:02.755Z,100254.82
2018-12-11T04:55:35.423Z,100257.31
2018-12-11T04:58:07.982Z,100258.66
2018-12-11T05:00:40.583Z,100265.06
2018-12-11T05:03:13.196Z,100262.64
2018-12-11T05:05:45.842Z,100256.52
2018-12-11T05:08:18.410Z,100257.02
2018-12-11T05:10:52.390Z,100249.27
2018-12-11T05:13:24.985Z,100239.19
2018-12-11T05:15:57.580Z,100244.41
2018-12-11T05:18:30.155Z,100242.48
2018-12-11T05:21:02.734Z,100244.48
2018-12-11T05:23:35.266Z,100249.35
2018-12-11T05:26:07.796Z,100245.74
2018-12-11T05:28:40.966Z,100239.19
2018-12-11T05:31:13.495Z,100246.09
2018-12-11T05:33:46.109Z,100245.48
2018-12-11T05:36:18.765Z,100245.89
2018-12-11T05:38:51.252Z,100250.88
2018-12-11T05:41:23.867Z,100252.09
2018-12-11T05:43:56.506Z,100251.69
2018-12-11T05:46:30.303Z,100250.69
2018-12-11T05:49:02.886Z,100250.45
2018-12-11T05:51:35.426Z,100250.45
2018-12-11T05:54:07.972Z,100252.91
2018-12-11T05:56:40.565Z,100253.72
2018-12-11T05:59:14.061Z,100246.44
2018-12-11T06:01:46.619Z,100249.16
2018-12-11T06:04:19.249Z,100252.45
2018-12-11T06:06:51.881Z,100255.17
2018-12-11T06:09:24.471Z,100253.52
2018-12-11T06:11:57.101Z,100249.65
2018-12-11T06:14:29.874Z,100244.25
2018-12-11T06:17:02.470Z,100245.05
2018-12-11T06:19:35.118Z,100247.27
2018-12-11T06:22:08.249Z,100258.80
2018-12-11T06:24:42.374Z,100260.87
2018-12-11T06:27:15.252Z,100264.59
2018-12-11T06:29:47.879Z,100261.91
2018-12-11T06:32:21.768Z,100267.24
2018-12-11T06:34:54.322Z,100264.90
2018-12-11T06:37:26.914Z,100269.58
2018-12-11T06:39:59.508Z,100275.64
2018-12-11T06:42:33.255Z,100269.55
2018-12-11T06:45:06.604Z,100265.14
2018-12-11T06:47:39.866Z,100270.74
2018-12-11T06:50:12.498Z,100275.42
2018-12-11T06:52:45.071Z,100274.22
2018-12-11T06:55:17.712Z,100274.11
2018-12-11T06:57:51.350Z,100280.97
2018-12-11T07:00:23.908Z,100283.04
2018-12-11T07:02:56.582Z,100284.08
2018-12-11T07:05:29.186Z,100288.17
2018-12-11T07:08:01.821Z,100284.99
2018-12-11T07:10:35.046Z,100295.05
2018-12-11T07:13:07.636Z,100294.89
2018-12-11T07:15:40.384Z,100294.52
2018-12-11T07:18:13.028Z,100300.22
2018-12-11T07:20:45.593Z,100304.75
2018-12-11T07:23:18.659Z,100312.69
2018-12-11T07:25:51.757Z,100293.31
2018-12-11T07:28:25.200Z,100290.83
2018-12-11T07:30:57.750Z,100289.41
2018-12-11T07:36:42.819Z,100309.50
2018-12-11T07:39:16.204Z,100309.31
2018-12-11T07:41:48.747Z,100311.50
2018-12-11T07:44:22.535Z,100313.88
2018-12-11T07:46:55.133Z,100319.55
2018-12-11T07:49:27.814Z,100318.02
2018-12-11T07:52:02.771Z,100314.80
2018-12-11T07:54:35.287Z,100315.98
2018-12-11T07:57:07.835Z,100314.83
2018-12-11T07:59:40.509Z,100314.87
2018-12-11T08:02:13.656Z,100319.36
2018-12-11T08:04:46.235Z,100329.75
2018-12-11T08:07:18.776Z,100323.92
2018-12-11T08:09:51.385Z,100331.59
2018-12-11T08:12:23.920Z,100328.77
2018-12-11T08:14:56.552Z,100329.82
2018-12-11T08:17:29.161Z,100340.70
2018-12-11T08:20:01.788Z,100328.56
2018-12-11T08:22:34.454Z,100332.29
2018-12-11T08:25:07.073Z,100341.16
2018-12-11T08:27:40.623Z,100338.47
2018-12-11T08:30:14.082Z,100333.42
2018-12-11T08:32:46.744Z,100330.23
2018-12-11T08:35:19.857Z,100327.10
2018-12-11T08:37:52.420Z,100332.95
2018-12-11T08:40:25.013Z,100331.57
2018-12-11T08:42:57.615Z,100340.05
2018-12-11T08:45:30.220Z,100333.03
2018-12-11T08:48:03.046Z,100329.91
2018-12-11T08:50:35.626Z,100322.66
2018-12-11T08:53:08.284Z,100331.92
2018-12-11T08:55:41.585Z,100323.55
2018-12-11T08:58:14.216Z,100332.28
2018-12-11T09:00:46.865Z,100333.62
2018-12-11T09:03:19.981Z,100321.31
2018-12-11T09:05:53.187Z,100322.54
2018-12-11T09:08:25.743Z,100332.46
2018-12-11T09:10:58.490Z,100331.71
2018-12-11T09:13:31.051Z,100332.86
2018-12-11T09:16:03.739Z,100326.97
2018-12-11T09:18:36.461Z,100332.89
2018-12-11T09:21:09.034Z,100340.05
2018-12-11T09:23:41.623Z,100350.30
2018-12-11T09:26:14.233Z,100358.91
2018-12-11T09:28:46.994Z,100346.60
2018-12-11T09:31:21.640Z,100348.86
2018-12-11T09:33:54.305Z,100353.94
2018-12-11T09:36:26.877Z,100358.20
2018-12-11T09:39:01.068Z,100357.64
2018-12-11T09:41:35.523Z,100356.17
2018-12-11T09:44:08.120Z,100357.25
2018-12-11T09:46:41.285Z,100360.22
2018-12-11T09:49:13.937Z,100356.03
2018-12-11T09:51:46.479Z,100361.16
2018-12-11T09:54:19.131Z,100357.66
2018-12-11T09:56:52.731Z,100360.16
2018-12-11T09:59:25.315Z,100366.41
2018-12-11T10:01:58.532Z,100355.09
2018-12-11T10:04:31.176Z,100360.84
2018-12-11T10:07:03.932Z,100362.80
2018-12-11T10:09:36.502Z,100355.64
2018-12-11T10:12:09.111Z,100365.33
2018-12-11T10:14:43.063Z,100360.84
2018-12-11T10:17:15.632Z,100362.84
2018-12-11T10:19:48.260Z,100362.87
2018-12-11T10:22:21.383Z,100358.23
2018-12-11T10:24:53.967Z,100356.26
2018-12-11T10:27:26.513Z,100360.23
2018-12-11T10:29:59.111Z,100355.39
2018-12-11T10:32:32.443Z,100358.22
2018-12-11T10:35:05.628Z,100360.93
2018-12-11T10:37:38.281Z,100354.84
2018-12-11T10:40:10.875Z,100358.33
2018-12-11T10:42:43.491Z,100358.23
2018-12-11T10:45:16.105Z,100364.62
2018-12-11T10:47:49.314Z,100370.13
2018-12-11T10:50:21.879Z,100359.88
2018-12-11T10:52:54.466Z,100358.30
2018-12-11T10:55:27.077Z,100365.50
2018-12-11T10:57:59.870Z,100364.62
2018-12-11T11:00:38.907Z,100366.81
2018-12-11T11:03:12.182Z,100372.11
2018-12-11T11:05:44.781Z,100366.63
2018-12-11T11:08:17.477Z,100362.71
2018-12-11T11:10:50.146Z,100362.85
2018-12-11T11:13:23.701Z,100368.80
2018-12-11T11:15:56.501Z,100372.68
2018-12-11T11:18:29.654Z,100362.84
2018-12-11T11:21:02.244Z,100364.48
2018-12-11T11:23:35.036Z,100372.92
2018-12-11T11:26:07.680Z,100368.20
2018-12-11T11:28:41.355Z,100366.77
2018-12-11T11:31:13.915Z,100368.24
2018-12-11T11:33:46.445Z,100370.98
2018-12-11T11:36:20.696Z,100375.17
2018-12-11T11:38:54.530Z,100364.53
2018-12-11T11:41:27.166Z,100366.13
2018-12-11T11:43:59.822Z,100369.94
2018-12-11T11:46:33.095Z,100372.75
2018-12-11T11:49:05.891Z,100371.45
2018-12-11T11:51:38.422Z,100370.48
2018-12-11T11:54:12.607Z,100363.09
2018-12-11T11:56:46.147Z,100373.80
2018-12-11T12:00:48.222Z,100362.77
2018-12-11T12:03:22.582Z,100376.59
2018-12-11T12:05:55.098Z,100381.45
2018-12-11T12:08:30.707Z,100386.33
2018-12-11T12:11:05.388Z,100379.44
2018-12-11T12:13:38.393Z,100383.54
2018-12-11T12:16:11.805Z,100380.21
2018-12-11T12:18:44.419Z,100370.14
2018-12-11T12:21:17.164Z,100364.86
2018-12-11T12:23:52.916Z,100365.95
2018-12-11T12:26:25.666Z,100365.71
2018-12-11T12:28:59.055Z,100367.56
2018-12-11T12:31:31.815Z,100370.23
2018-12-11T12:34:04.462Z,100383.78
2018-12-11T12:36:37.083Z,100379.06
2018-12-11T12:39:09.647Z,100383.98
2018-12-11T12:41:43.043Z,100389.85
2018-12-11T12:44:15.591Z,100389.48
2018-12-11T12:46:48.196Z,100385.87
2018-12-11T12:49:22.013Z,100388.60
2018-12-11T12:51:54.671Z,100385.75
2018-12-11T12:54:27.237Z,100387.25
2018-12-11T12:56:59.949Z,100387.02
2018-12-11T12:59:33.241Z,100388.48
2018-12-11T13:02:05.803Z,100389.38
2018-12-11T13:04:38.479Z,100391.98
2018-12-11T13:07:16.868Z,100386.76
2018-12-11T13:09:50.965Z,100384.83
2018-12-11T13:12:23.953Z,100379.47
2018-12-11T13:15:07.080Z,100381.55
2018-12-11T13:17:41.763Z,100385.53
2018-12-11T13:20:14.323Z,100386.98
2018-12-11T13:22:47.746Z,100387.83
2018-12-11T13:25:21.720Z,100385.92
2018-12-11T13:27:55.610Z,100380.92
2018-12-11T13:30:28.859Z,100377.51
2018-12-11T13:33:08.054Z,100375.66
2018-12-11T13:35:41.812Z,100369.25
2018-12-11T13:38:16.251Z,100365.45
2018-12-11T13:40:49.965Z,100370.11
2018-12-11T13:43:24.640Z,100378.96
2018-12-11T13:46:07.270Z,100378.69
2018-12-11T13:48:42.823Z,100387.31
2018-12-11T13:51:17.101Z,100385.75
2018-12-11T14:01:57.958Z,100389.09
2018-12-11T14:04:33.835Z,100398.12
2018-12-11T14:07:08.134Z,100389.73
2018-12-11T14:09:42.726Z,100392.27
2018-12-11T14:12:15.400Z,100392.46
2018-12-11T14:19:38.404Z,100389.18
2018-12-11T14:25:16.940Z,100391.98
2018-12-11T14:27:49.780Z,100397.97
2018-12-11T14:30:22.454Z,100394.14
2018-12-11T14:32:54.985Z,100395.39
2018-12-11T14:35:27.601Z,100394.97
2018-12-11T14:38:00.204Z,100396.48
2018-12-11T14:40:32.925Z,100403.97
2018-12-11T14:43:05.519Z,100404.39
2018-12-11T14:45:38.107Z,100408.48
2018-12-11T14:48:10.842Z,100412.52
2018-12-11T14:50:43.457Z,100409.82
2018-12-11T14:53:17.043Z,100411.40
2018-12-11T14:55:50.037Z,100411.88
2018-12-11T14:58:22.874Z,100410.05
2018-12-11T15:00:56.063Z,100413.06
2018-12-11T15:03:28.827Z,100404.33
2018-12-11T15:06:02.087Z,100414.47
2018-12-11T15:08:35.623Z,100412.27
2018-12-11T15:11:08.290Z,100409.73
2018-12-11T15:13:41.723Z,100419.63
2018-12-11T15:16:15.853Z,100414.08
2018-12-11T15:18:48.495Z,100417.91
2018-12-11T15:21:21.782Z,100412.69
2018-12-11T15:23:54.670Z,100414.73
2018-12-11T15:26:27.240Z,100412.56
2018-12-11T15:29:00.236Z,100407.19
2018-12-11T15:31:35.778Z,100411.02
2018-12-11T15:34:09.236Z,100413.65
2018-12-11T15:36:42.694Z,100413.16
2018-12-11T15:39:15.307Z,100406.14
2018-12-11T15:41:48.661Z,100407.20
2018-12-11T15:44:24.595Z,100408.95
2018-12-11T15:46:57.165Z,100409.67
2018-12-11T15:49:30.074Z,100409.41
2018-12-11T15:52:02.801Z,100411.50
2018-12-11T15:54:35.478Z,100419.44
2018-12-11T15:57:08.402Z,100428.03
2018-12-11T15:59:41.079Z,100416.63
2018-12-11T16:02:13.739Z,100424.11
2018-12-11T16:04:46.314Z,100426.28
2018-12-11T16:07:20.975Z,100426.72
2018-12-11T16:09:53.530Z,100427.58
2018-12-11T16:12:26.817Z,100431.58
2018-12-11T16:15:02.676Z,100438.00
2018-12-11T16:17:35.624Z,100437.65
2018-12-11T16:20:09.391Z,100438.77
2018-12-11T16:22:43.800Z,100443.03
2018-12-11T16:25:16.684Z,100448.05
2018-12-11T16:27:49.400Z,100455.70
2018-12-11T16:30:22.872Z,100448.80
2018-12-11T16:32:55.830Z,100448.25
2018-12-11T16:35:29.031Z,100448.42
2018-12-11T16:38:01.888Z,100445.78
2018-12-11T16:40:34.619Z,100457.54
2018-12-11T16:43:08.221Z,100453.18
2018-12-11T16:45:40.962Z,100466.53
2018-12-11T16:48:13.547Z,100464.65
2018-12-11T16:50:46.182Z,100461.73
2018-12-11T16:53:19.494Z,100462.42
2018-12-11T16:55:52.272Z,100470.55
2018-12-11T16:58:25.717Z,100473.73
2018-12-11T17:00:58.281Z,100475.87
2018-12-11T17:06:32.154Z,100483.69
2018-12-11T17:09:09.816Z,100484.83
2018-12-11T17:11:42.747Z,100485.13
2018-12-11T17:14:15.764Z,100485.08
2018-12-11T17:16:48.648Z,100488.74
2018-12-11T17:19:21.330Z,100501.93
2018-12-11T17:21:56.392Z,100501.20
2018-12-11T17:24:31.286Z,100500.88
2018-12-11T17:27:04.552Z,100504.27
2018-12-11T17:29:39.337Z,100511.27
2018-12-11T17:32:11.955Z,100506.77
2018-12-11T17:34:45.232Z,100508.48
2018-12-11T17:37:21.033Z,100509.98
2018-12-11T17:39:57.328Z,100511.11
2018-12-11T17:42:29.942Z,100516.41
2018-12-11T17:45:05.228Z,100526.71
2018-12-11T17:47:38.096Z,100517.84
2018-12-11T17:50:12.233Z,100517.80
2018-12-11T17:52:47.311Z,100516.22
2018-12-11T17:55:20.511Z,100521.70
2018-12-11T17:57:53.609Z,100519.56
2018-12-11T18:00:26.290Z,100518.60
2018-12-11T18:03:00.460Z,100523.13
2018-12-11T18:05:33.540Z,100516.25
2018-12-11T18:08:06.287Z,100520.16
2018-12-11T18:10:39.034Z,100526.14
2018-12-11T18:13:14.071Z,100524.73
2018-12-11T18:15:50.525Z,100532.20
2018-12-11T18:18:23.427Z,100526.09
2018-12-11T18:20:57.988Z,100526.05
2018-12-11T18:23:31.165Z,100527.13
2018-12-11T18:26:07.289Z,100527.63
2018-12-11T18:28:40.882Z,100527.45
2018-12-11T18:31:15.025Z,100527.28
2018-12-11T18:33:48.513Z,100526.78
2018-12-11T18:36:21.436Z,100531.54
2018-12-11T18:38:54.153Z,100544.99
2018-12-11T18:41:26.779Z,100538.17
2018-12-11T18:43:59.545Z,100543.41
2018-12-11T18:46:32.340Z,100545.73
2018-12-11T18:49:07.098Z,100542.44
2018-12-11T18:51:40.477Z,100542.61
2018-12-11T18:54:14.420Z,100543.29
2018-12-11T18:56:48.009Z,100538.17
2018-12-11T18:59:21.459Z,100538.20
2018-12-11T19:01:54.062Z,100539.92
2018-12-11T19:04:26.907Z,100540.70
2018-12-11T19:06:59.792Z,100547.98
2018-12-11T19:09:34.513Z,100548.67
2018-12-11T19:12:07.243Z,100543.75
2018-12-11T19:14:41.039Z,100545.75
2018-12-11T19:17:13.848Z,100551.17
2018-12-11T19:19:47.096Z,100541.64
2018-12-11T19:22:20.079Z,100545.59
2018-12-11T19:24:55.102Z,100552.29
2018-12-11T19:27:28.165Z,100550.21
2018-12-11T19:30:01.474Z,100561.16
2018-12-11T19:32:36.220Z,100555.94
2018-12-11T19:35:10.128Z,100557.35
2018-12-11T19:37:44.840Z,100554.39
2018-12-11T19:40:20.903Z,100547.78
2018-12-11T19:42:53.569Z,100553.39
2018-12-11T19:45:26.129Z,100557.42
2018-12-11T19:47:58.930Z,100554.30
2018-12-11T19:50:31.579Z,100559.86
2018-12-11T19:56:16.579Z,100554.67
2018-12-11T19:58:49.475Z,100559.81
2018-12-11T20:01:22.213Z,100567.55
2018-12-11T20:03:54.879Z,100559.79
2018-12-11T20:06:27.540Z,100566.66
2018-12-11T20:09:00.406Z,100571.05
2018-12-11T20:11:33.132Z,100571.80
2018-12-11T20:14:05.890Z,100576.73
2018-12-11T20:16:38.632Z,100582.08
2018-12-11T20:19:11.617Z,100582.19
2018-12-11T20:21:44.330Z,100580.47
2018-12-11T20:24:17.066Z,100576.78
2018-12-11T20:26:49.809Z,100582.20
2018-12-11T20:29:23.177Z,100589.30
2018-12-11T20:31:55.777Z,100591.00
2018-12-11T20:34:28.616Z,100595.57
2018-12-11T20:37:01.315Z,100589.88
2018-12-11T20:39:34.553Z,100592.47
2018-12-11T20:42:07.473Z,100591.94
2018-12-11T20:44:40.247Z,100590.88
2018-12-11T20:47:13.090Z,100589.16
2018-12-11T20:49:46.161Z,100597.13
2018-12-11T20:52:18.844Z,100588.91
2018-12-11T20:54:53.214Z,100597.75
2018-12-11T20:57:25.855Z,100593.75
2018-12-11T20:59:58.532Z,100598.33
2018-12-11T21:02:31.142Z,100595.91
2018-12-11T21:05:04.870Z,100593.45
2018-12-11T21:07:37.546Z,100593.75
2018-12-11T21:10:11.369Z,100602.36
2018-12-11T21:12:44.059Z,100609.36
2018-12-11T21:15:16.661Z,100606.01
2018-12-11T21:17:49.941Z,100614.36
2018-12-11T21:20:25.739Z,100619.24
2018-12-11T21:22:58.412Z,100621.59
2018-12-11T21:25:31.095Z,100621.62
2018-12-11T21:28:03.898Z,100619.81
2018-12-11T21:30:37.871Z,100624.70
2018-12-11T21:33:11.702Z,100627.55
2018-12-11T21:35:44.942Z,100621.94
2018-12-11T21:38:17.588Z,100631.84
2018-12-11T21:40:51.353Z,100627.08
2018-12-11T21:43:24.709Z,100632.92
2018-12-11T21:45:57.409Z,100638.70
2018-12-11T21:48:30.103Z,100635.12
2018-12-11T21:51:02.934Z,100635.88
2018-12-11T21:53:35.600Z,100627.05
2018-12-11T21:56:08.223Z,100631.09
2018-12-11T21:58:41.944Z,100635.23
2018-12-11T22:01:14.751Z,100637.27
2018-12-11T22:03:47.321Z,100633.05
2018-12-11T22:06:20.221Z,100631.59
2018-12-11T22:08:54.264Z,100631.94
2018-12-11T22:11:26.911Z,100634.09
2018-12-11T22:14:00.783Z,100638.13
2018-12-11T22:16:33.456Z,100640.31
2018-12-11T22:19:06.116Z,100639.81
2018-12-11T22:21:40.967Z,100638.08
2018-12-11T22:24:13.841Z,100635.97
2018-12-11T22:26:46.557Z,100631.09
2018-12-11T22:29:19.309Z,100631.59
2018-12-11T22:31:52.107Z,100628.78
2018-12-11T22:34:24.801Z,100628.60
2018-12-11T22:36:57.992Z,100631.62
2018-12-11T22:39:31.919Z,100636.16
2018-12-11T22:42:04.527Z,100642.53
2018-12-11T22:44:37.123Z,100638.66
2018-12-11T22:47:10.459Z,100639.45
2018-12-11T22:49:43.748Z,100637.50
2018-12-11T22:52:17.332Z,100642.48
2018-12-11T22:54:53.925Z,100642.03
2018-12-11T22:57:27.869Z,100645.03
2018-12-11T23:00:11.786Z,100649.26
2018-12-11T23:02:47.466Z,100652.77
2018-12-11T23:05:20.195Z,100656.10
2018-12-11T23:07:53.514Z,100650.84
2018-12-11T23:10:27.292Z,100653.15
2018-12-11T23:13:00.119Z,100655.34
2018-12-11T23:15:33.779Z,100657.01
2018-12-11T23:18:06.449Z,100655.72
2018-12-11T23:20:39.226Z,100657.19
2018-12-11T23:23:11.877Z,100659.95
2018-12-11T23:25:44.526Z,100655.80
2018-12-11T23:28:17.700Z,100666.14
2018-12-11T23:30:50.837Z,100667.91
2018-12-11T23:33:24.363Z,100663.94
2018-12-11T23:35:57.179Z,100665.67
2018-12-11T23:38:30.133Z,100667.83
2018-12-11T23:41:03.039Z,100669.48
2018-12-11T23:43:35.717Z,100665.25
2018-12-11T23:46:08.355Z,100664.78
2018-12-11T23:48:41.598Z,100655.18
2018-12-11T23:51:14.159Z,100659.06
2018-12-11T23:53:46.675Z,100658.72
2018-12-11T23:56:19.420Z,100655.53
2018-12-11T23:58:52.536Z,100650.45
